| time (UTC) | temp F | wind direction | speed knots | gust knots | rain 1hr in | rain 24hr in | rain mn in | humidity % | barometer mb |
| 20260508095010 | 35 | 247 | 0.0 | 1.7 | 0.00 | 0.14 | 0.00 | 74 | 1019.2 |
| 20260508094516 | 35 | 245 | 0.0 | 0.9 | 0.00 | 0.14 | 0.00 | 76 | 1019.2 |
| 20260508094004 | 35 | 225 | 0.9 | 0.9 | 0.00 | 0.14 | 0.00 | 75 | 1019.1 |
| 20260508093510 | 35 | 205 | 0.0 | 0.9 | 0.00 | 0.14 | 0.00 | 76 | 1019.1 |
| 20260508093011 | 36 | 205 | 0.0 | 0.9 | 0.00 | 0.14 | 0.00 | 74 | 1019.2 |
| 20260508092508 | 36 | 205 | 0.0 | 0.9 | 0.00 | 0.14 | 0.00 | 72 | 1019.1 |
| 20260508092006 | 36 | 251 | 0.0 | 3.5 | 0.00 | 0.14 | 0.00 | 71 | 1019.2 |
| 20260508091513 | 36 | 245 | 0.0 | 3.5 | 0.00 | 0.14 | 0.00 | 69 | 1019.3 |
| 20260508091007 | 37 | 215 | 0.0 | 1.7 | 0.00 | 0.14 | 0.00 | 68 | 1019.2 |
| 20260508090507 | 37 | 217 | 0.9 | 2.6 | 0.00 | 0.14 | 0.00 | 67 | 1019.3 |
| 20260508090007 | 38 | 217 | 1.7 | 2.6 | 0.00 | 0.14 | 0.00 | 64 | 1019.4 |
| 20260508085507 | 39 | 219 | 0.9 | 2.6 | 0.00 | 0.14 | 0.00 | 62 | 1019.3 |
| 20260508085003 | 39 | 203 | 0.9 | 2.6 | 0.00 | 0.14 | 0.00 | 60 | 1019.2 |
| 20260508084525 | 40 | 203 | 0.9 | 1.7 | 0.00 | 0.14 | 0.00 | 60 | 1019.2 |
| 20260508084006 | 40 | 209 | 0.0 | 1.7 | 0.00 | 0.14 | 0.00 | 59 | 1019.2 |
| 20260508083504 | 41 | 196 | 0.0 | 1.7 | 0.00 | 0.14 | 0.00 | 57 | 1019.3 |
| 20260508083021 | 42 | 163 | 0.9 | 4.3 | 0.00 | 0.14 | 0.00 | 54 | 1019.2 |
| 20260508082504 | 43 | 242 | 1.7 | 6.1 | 0.00 | 0.14 | 0.00 | 51 | 1019.3 |
| 20260508082012 | 44 | 294 | 0.9 | 6.1 | 0.00 | 0.14 | 0.00 | 47 | 1019.3 |
| 20260508081522 | 43 | 259 | 2.6 | 7.8 | 0.00 | 0.14 | 0.00 | 49 | 1019.2 |
| 20260508081006 | 44 | 238 | 2.6 | 7.8 | 0.00 | 0.14 | 0.00 | 47 | 1019.3 |
| 20260508080507 | 43 | 225 | 2.6 | 7.0 | 0.00 | 0.14 | 0.00 | 48 | 1019.4 |
| 20260508080016 | 41 | 275 | 1.7 | 7.0 | 0.00 | 0.14 | 0.00 | 53 | 1019.4 |
| 20260508075505 | 40 | 210 | 0.0 | 1.7 | 0.00 | 0.14 | 0.00 | 60 | 1019.3 |
| 20260508075007 | 40 | 148 | 0.9 | 2.6 | 0.00 | 0.14 | 0.00 | 57 | 1019.2 |
| 20260508074514 | 41 | 213 | 0.0 | 4.3 | 0.00 | 0.14 | 0.00 | 57 | 1019.4 |
| 20260508074009 | 42 | 155 | 0.0 | 4.3 | 0.00 | 0.14 | 0.00 | 55 | 1019.5 |
| 20260508073509 | 42 | 221 | 0.9 | 4.3 | 0.00 | 0.14 | 0.00 | 55 | 1019.5 |
| 20260508073013 | 42 | 231 | 1.7 | 4.3 | 0.00 | 0.14 | 0.00 | 54 | 1019.6 |
| 20260508072509 | 41 | 280 | 1.7 | 4.3 | 0.00 | 0.14 | 0.00 | 55 | 1019.6 |
| 20260508072007 | 41 | 221 | 0.9 | 2.6 | 0.00 | 0.14 | 0.00 | 57 | 1019.7 |
| 20260508071529 | 43 | 251 | 0.9 | 7.0 | 0.00 | 0.14 | 0.00 | 54 | 1019.6 |
| 20260508071008 | 44 | 148 | 0.9 | 7.0 | 0.00 | 0.14 | 0.00 | 52 | 1019.6 |
| 20260508070507 | 44 | 213 | 0.9 | 6.1 | 0.00 | 0.14 | 0.00 | 51 | 1019.6 |
| 20260508070027 | 44 | 293 | 1.7 | 5.2 | 0.00 | 0.14 | 0.00 | 51 | 1019.6 |
| 20260508065507 | 45 | 101 | 0.9 | 8.7 | 0.00 | 0.14 | 0.00 | 52 | 1019.6 |
| 20260508065004 | 46 | 179 | 2.6 | 10.4 | 0.00 | 0.14 | 0.00 | 46 | 1019.6 |
| 20260508064535 | 46 | 271 | 2.6 | 10.4 | 0.00 | 0.14 | 0.00 | 45 | 1019.6 |
| 20260508064003 | 47 | 268 | 2.6 | 10.4 | 0.00 | 0.14 | 0.00 | 47 | 1019.6 |
| 20260508063507 | 47 | 250 | 6.1 | 10.4 | 0.00 | 0.14 | 0.00 | 45 | 1019.6 |
| 20260508063025 | 45 | 323 | 0.9 | 7.0 | 0.00 | 0.14 | 0.00 | 53 | 1019.6 |
| 20260508062508 | 46 | 283 | 2.6 | 6.1 | 0.00 | 0.14 | 0.00 | 47 | 1019.5 |
| 20260508062007 | 46 | 283 | 3.5 | 8.7 | 0.00 | 0.14 | 0.00 | 48 | 1019.5 |
| 20260508061520 | 46 | 229 | 2.6 | 8.7 | 0.00 | 0.14 | 0.00 | 47 | 1019.5 |
| 20260508061010 | 46 | 224 | 2.6 | 7.8 | 0.00 | 0.14 | 0.00 | 48 | 1019.4 |
| 20260508060507 | 46 | 265 | 0.9 | 12.2 | 0.00 | 0.14 | 0.00 | 49 | 1019.4 |
| 20260508060021 | 46 | 323 | 3.5 | 12.2 | 0.00 | 0.14 | 0.00 | 46 | 1019.4 |
| 20260508055508 | 44 | 276 | 5.2 | 12.2 | 0.00 | 0.14 | 0.14 | 50 | 1019.5 |
| 20260508055005 | 43 | 148 | 1.7 | 5.2 | 0.00 | 0.14 | 0.14 | 57 | 1019.6 |
| 20260508054517 | 43 | 211 | 1.7 | 5.2 | 0.00 | 0.14 | 0.14 | 56 | 1019.5 |
| 20260508054008 | 41 | 214 | 0.0 | 4.3 | 0.00 | 0.14 | 0.14 | 64 | 1019.5 |
| 20260508053511 | 41 | 123 | 0.9 | 10.4 | 0.00 | 0.14 | 0.14 | 66 | 1019.4 |
| 20260508053031 | 40 | 299 | 1.7 | 10.4 | 0.00 | 0.14 | 0.14 | 65 | 1019.5 |
| 20260508052508 | 40 | 131 | 0.0 | 1.7 | 0.00 | 0.14 | 0.14 | 65 | 1019.4 |
| 20260508052006 | 41 | 244 | 0.0 | 1.7 | 0.00 | 0.14 | 0.14 | 63 | 1019.4 |
| 20260508051528 | 42 | 172 | 0.0 | 1.7 | 0.00 | 0.14 | 0.14 | 65 | 1019.4 |
| 20260508051007 | 43 | 138 | 0.9 | 3.5 | 0.00 | 0.14 | 0.14 | 59 | 1019.4 |
| 20260508050510 | 43 | 203 | 1.7 | 3.5 | 0.00 | 0.14 | 0.14 | 57 | 1019.5 |
| 20260508050028 | 45 | 193 | 0.0 | 4.3 | 0.00 | 0.14 | 0.14 | 54 | 1019.6 |
| 20260508045504 | 46 | 252 | 0.0 | 5.2 | 0.00 | 0.14 | 0.14 | 53 | 1019.5 |
| 20260508045009 | 47 | 298 | 1.7 | 7.0 | 0.00 | 0.14 | 0.14 | 46 | 1019.5 |
| 20260508044524 | 47 | 269 | 1.7 | 8.7 | 0.00 | 0.14 | 0.14 | 46 | 1019.4 |
| 20260508044006 | 47 | 314 | 3.5 | 8.7 | 0.00 | 0.14 | 0.14 | 46 | 1019.5 |
| 20260508043508 | 47 | 276 | 2.6 | 8.7 | 0.00 | 0.14 | 0.14 | 47 | 1019.4 |
| 20260508043021 | 47 | 278 | 4.3 | 10.4 | 0.00 | 0.14 | 0.14 | 46 | 1019.4 |
| 20260508042507 | 47 | 297 | 5.2 | 10.4 | 0.00 | 0.14 | 0.14 | 45 | 1019.4 |
| 20260508042009 | 47 | 310 | 4.3 | 10.4 | 0.00 | 0.14 | 0.14 | 45 | 1019.5 |
| 20260508041520 | 46 | 230 | 1.7 | 10.4 | 0.00 | 0.14 | 0.14 | 49 | 1019.3 |
| 20260508041007 | 46 | 245 | 2.6 | 13.0 | 0.00 | 0.14 | 0.14 | 47 | 1019.4 |
| 20260508040507 | 47 | 216 | 1.7 | 13.0 | 0.00 | 0.14 | 0.14 | 47 | 1019.2 |
| 20260508040023 | 46 | 240 | 5.2 | 13.0 | 0.00 | 0.14 | 0.14 | 48 | 1019.2 |
| 20260508035508 | 47 | 236 | 2.6 | 11.3 | 0.00 | 0.14 | 0.14 | 49 | 1019.3 |
| 20260508035009 | 47 | 278 | 2.6 | 10.4 | 0.00 | 0.14 | 0.14 | 48 | 1019.2 |
| 20260508034529 | 47 | 284 | 5.2 | 13.0 | 0.00 | 0.14 | 0.14 | 48 | 1019.3 |
| 20260508034012 | 47 | 283 | 7.0 | 13.9 | 0.00 | 0.14 | 0.14 | 51 | 1019.2 |
| 20260508033505 | 43 | 285 | 8.7 | 13.9 | 0.00 | 0.14 | 0.14 | 63 | 1019.3 |
| 20260508033030 | 40 | 262 | 2.6 | 13.0 | 0.00 | 0.14 | 0.14 | 77 | 1019.1 |
| 20260508032509 | 39 | 205 | 0.9 | 2.6 | 0.00 | 0.14 | 0.14 | 82 | 1019.1 |
| 20260508032008 | 39 | 200 | 0.0 | 1.7 | 0.00 | 0.14 | 0.14 | 82 | 1019.1 |
| 20260508031531 | 40 | 200 | 0.0 | 2.6 | 0.00 | 0.14 | 0.14 | 82 | 1018.9 |
| 20260508031007 | 40 | 130 | 0.0 | 2.6 | 0.00 | 0.14 | 0.14 | 81 | 1018.9 |
| 20260508030508 | 41 | 127 | 0.0 | 4.3 | 0.00 | 0.14 | 0.14 | 79 | 1018.7 |
| 20260508030025 | 41 | 148 | 0.9 | 4.3 | 0.00 | 0.14 | 0.14 | 78 | 1018.6 |
| 20260508025506 | 40 | 318 | 0.9 | 4.3 | 0.00 | 0.14 | 0.14 | 80 | 1018.8 |
| 20260508025009 | 40 | 223 | 0.9 | 1.7 | 0.00 | 0.14 | 0.14 | 82 | 1018.9 |
| 20260508024540 | 41 | 144 | 0.0 | 3.5 | 0.00 | 0.14 | 0.14 | 79 | 1018.6 |
| 20260508024008 | 40 | 238 | 0.0 | 5.2 | 0.00 | 0.14 | 0.14 | 80 | 1018.5 |
| 20260508023508 | 39 | 229 | 0.9 | 5.2 | 0.00 | 0.14 | 0.14 | 85 | 1018.5 |
| 20260508023028 | 39 | 256 | 1.7 | 5.2 | 0.00 | 0.14 | 0.14 | 85 | 1018.7 |
| 20260508022509 | 39 | 270 | 0.0 | 1.7 | 0.00 | 0.14 | 0.14 | 84 | 1018.4 |
| 20260508022007 | 39 | 116 | 0.9 | 1.7 | 0.01 | 0.14 | 0.14 | 84 | 1018.4 |
| 20260508021528 | 39 | 136 | 0.9 | 1.7 | 0.01 | 0.14 | 0.14 | 85 | 1018.4 |
| 20260508021010 | 39 | 240 | 0.0 | 0.9 | 0.01 | 0.14 | 0.14 | 84 | 1018.3 |
| 20260508020508 | 39 | 240 | 0.0 | 0.9 | 0.01 | 0.14 | 0.14 | 83 | 1018.3 |
| 20260508020029 | 40 | 240 | 0.0 | 0.9 | 0.01 | 0.14 | 0.14 | 83 | 1018.2 |
| 20260508015509 | 40 | 241 | 0.0 | 2.6 | 0.01 | 0.14 | 0.14 | 82 | 1018.3 |
| 20260508015007 | 41 | 158 | 1.7 | 2.6 | 0.01 | 0.14 | 0.14 | 80 | 1018.3 |
| 20260508014544 | 41 | 212 | 0.0 | 1.7 | 0.01 | 0.14 | 0.14 | 82 | 1018.3 |
| 20260508014011 | 41 | 215 | 0.9 | 2.6 | 0.01 | 0.14 | 0.14 | 80 | 1018.2 |
| 20260508013507 | 42 | 205 | 0.0 | 2.6 | 0.01 | 0.14 | 0.14 | 78 | 1018.1 |
| 20260508013029 | 43 | 143 | 0.9 | 4.3 | 0.01 | 0.14 | 0.14 | 76 | 1018.2 |
| 20260508012509 | 43 | 212 | 0.9 | 16.5 | 0.01 | 0.14 | 0.14 | 73 | 1018.2 |
| 20260508012009 | 43 | 211 | 0.9 | 16.5 | 0.00 | 0.13 | 0.13 | 73 | 1018.4 |
| 20260508011531 | 44 | 262 | 7.0 | 16.5 | 0.00 | 0.13 | 0.13 | 70 | 1018.5 |
| 20260508011007 | 44 | 214 | 5.2 | 16.5 | 0.00 | 0.13 | 0.13 | 71 | 1018.3 |
| 20260508010511 | 45 | 228 | 5.2 | 16.5 | 0.00 | 0.13 | 0.13 | 67 | 1018.3 |
| 20260508010029 | 45 | 192 | 2.6 | 13.9 | 0.00 | 0.13 | 0.13 | 68 | 1018.2 |
| 20260508005510 | 46 | 63 | 2.6 | 26.9 | 0.00 | 0.13 | 0.13 | 66 | 1018.2 |
| 20260508005008 | 49 | 252 | 10.4 | 26.9 | 0.00 | 0.13 | 0.13 | 58 | 1018.6 |
| 20260508004525 | 50 | 262 | 5.2 | 9.6 | 0.00 | 0.13 | 0.13 | 53 | 1017.7 |
| 20260508004013 | 50 | 218 | 1.7 | 3.5 | 0.00 | 0.13 | 0.13 | 54 | 1017.6 |
| 20260508003511 | 50 | 195 | 0.9 | 9.6 | 0.00 | 0.13 | 0.13 | 53 | 1017.6 |
| 20260508003012 | 51 | 235 | 5.2 | 10.4 | 0.00 | 0.13 | 0.13 | 52 | 1017.7 |
| 20260508002504 | 51 | 260 | 6.1 | 10.4 | 0.00 | 0.14 | 0.13 | 51 | 1017.8 |
| 20260508002003 | 51 | 236 | 3.5 | 8.7 | 0.00 | 0.14 | 0.13 | 52 | 1017.7 |
| 20260508001520 | 51 | 227 | 3.5 | 7.8 | 0.00 | 0.14 | 0.13 | 51 | 1017.7 |
| 20260508001003 | 52 | 260 | 3.5 | 10.4 | 0.00 | 0.14 | 0.13 | 52 | 1017.8 |
| 20260508000505 | 52 | 155 | 4.3 | 10.4 | 0.00 | 0.14 | 0.13 | 52 | 1017.8 |
| 20260508000016 | 51 | 255 | 1.7 | 5.2 | 0.00 | 0.14 | 0.13 | 52 | 1018.0 |
| 20260507235507 | 51 | 307 | 1.7 | 9.6 | 0.00 | 0.14 | 0.13 | 53 | 1018.0 |
| 20260507235007 | 51 | 283 | 2.6 | 9.6 | 0.00 | 0.14 | 0.13 | 51 | 1018.2 |
| 20260507234514 | 51 | 278 | 0.9 | 9.6 | 0.00 | 0.15 | 0.13 | 51 | 1018.0 |
| 20260507234007 | 51 | 289 | 2.6 | 9.6 | 0.00 | 0.15 | 0.13 | 50 | 1018.0 |
| 20260507233506 | 51 | 231 | 4.3 | 7.8 | 0.00 | 0.15 | 0.13 | 50 | 1018.0 |
| 20260507233009 | 51 | 271 | 5.2 | 12.2 | 0.00 | 0.15 | 0.13 | 50 | 1018.0 |
| 20260507232504 | 51 | 212 | 3.5 | 12.2 | 0.00 | 0.16 | 0.13 | 49 | 1018.0 |
| 20260507232004 | 52 | 275 | 5.2 | 13.0 | 0.00 | 0.16 | 0.13 | 46 | 1018.0 |
| 20260507231509 | 51 | 254 | 7.0 | 20.0 | 0.00 | 0.16 | 0.13 | 47 | 1018.0 |
| 20260507231009 | 51 | 276 | 10.4 | 20.0 | 0.00 | 0.16 | 0.13 | 48 | 1018.0 |
| 20260507230505 | 51 | 249 | 5.2 | 18.2 | 0.00 | 0.17 | 0.13 | 49 | 1018.1 |
| 20260507230008 | 52 | 277 | 8.7 | 18.2 | 0.00 | 0.17 | 0.13 | 46 | 1018.1 |
| 20260507225512 | 53 | 262 | 7.8 | 14.8 | 0.00 | 0.17 | 0.13 | 45 | 1018.0 |
| 20260507225003 | 53 | 282 | 4.3 | 14.8 | 0.00 | 0.18 | 0.13 | 45 | 1017.7 |
| 20260507224507 | 53 | 307 | 6.1 | 14.8 | 0.00 | 0.18 | 0.13 | 45 | 1017.8 |
| 20260507224006 | 53 | 226 | 5.2 | 13.9 | 0.00 | 0.18 | 0.13 | 45 | 1017.7 |
| 20260507223503 | 54 | 250 | 5.2 | 13.9 | 0.00 | 0.18 | 0.13 | 45 | 1017.7 |
| 20260507223022 | 55 | 248 | 4.3 | 8.7 | 0.00 | 0.19 | 0.13 | 43 | 1017.8 |
| 20260507222506 | 55 | 232 | 4.3 | 9.6 | 0.00 | 0.19 | 0.13 | 44 | 1017.7 |
| 20260507222007 | 55 | 259 | 6.1 | 13.9 | 0.00 | 0.20 | 0.13 | 43 | 1017.7 |
| 20260507221518 | 54 | 219 | 6.1 | 16.5 | 0.00 | 0.20 | 0.13 | 45 | 1017.8 |
| 20260507221007 | 54 | 264 | 7.8 | 16.5 | 0.00 | 0.21 | 0.13 | 48 | 1017.9 |
| 20260507220511 | 54 | 222 | 5.2 | 13.0 | 0.00 | 0.21 | 0.13 | 45 | 1018.0 |
| 20260507220018 | 54 | 225 | 7.0 | 17.4 | 0.00 | 0.22 | 0.13 | 46 | 1017.9 |
| 20260507215504 | 53 | 268 | 9.6 | 17.4 | 0.00 | 0.22 | 0.13 | 46 | 1018.2 |
| 20260507215008 | 52 | 249 | 4.3 | 13.0 | 0.00 | 0.23 | 0.13 | 49 | 1018.1 |
| 20260507214515 | 52 | 270 | 4.3 | 16.5 | 0.00 | 0.23 | 0.13 | 48 | 1018.2 |
| 20260507214008 | 53 | 221 | 7.0 | 16.5 | 0.00 | 0.24 | 0.13 | 48 | 1018.3 |
| 20260507213507 | 53 | 251 | 7.0 | 13.0 | 0.00 | 0.24 | 0.13 | 45 | 1018.4 |
| 20260507213012 | 54 | 214 | 7.0 | 13.9 | 0.00 | 0.25 | 0.13 | 46 | 1018.3 |
| 20260507212506 | 53 | 260 | 5.2 | 14.8 | 0.00 | 0.25 | 0.13 | 48 | 1018.2 |
| 20260507212006 | 53 | 294 | 7.0 | 14.8 | 0.00 | 0.25 | 0.13 | 48 | 1018.5 |
| 20260507211508 | 53 | 255 | 7.8 | 14.8 | 0.00 | 0.26 | 0.13 | 48 | 1018.6 |
| 20260507211006 | 53 | 240 | 7.0 | 14.8 | 0.00 | 0.26 | 0.13 | 47 | 1018.6 |
| 20260507210504 | 53 | 239 | 3.5 | 9.6 | 0.00 | 0.27 | 0.13 | 52 | 1018.7 |
| 20260507210030 | 52 | 263 | 3.5 | 8.7 | 0.00 | 0.27 | 0.13 | 52 | 1019.0 |
| 20260507205505 | 51 | 291 | 2.6 | 12.2 | 0.00 | 0.28 | 0.13 | 52 | 1019.2 |
| 20260507205005 | 50 | 276 | 4.3 | 12.2 | 0.00 | 0.28 | 0.13 | 53 | 1019.4 |
| 20260507204524 | 51 | 234 | 2.6 | 10.4 | 0.00 | 0.29 | 0.13 | 52 | 1019.4 |
| 20260507204007 | 51 | 261 | 2.6 | 10.4 | 0.01 | 0.29 | 0.13 | 52 | 1019.4 |
| 20260507203504 | 52 | 252 | 3.5 | 11.3 | 0.01 | 0.30 | 0.13 | 49 | 1019.4 |
| 20260507203024 | 52 | 203 | 4.3 | 11.3 | 0.01 | 0.31 | 0.13 | 53 | 1019.5 |
| 20260507202503 | 51 | 220 | 4.3 | 11.3 | 0.02 | 0.31 | 0.13 | 51 | 1019.6 |
| 20260507202009 | 51 | 238 | 4.3 | 14.8 | 0.02 | 0.32 | 0.13 | 53 | 1019.7 |
| 20260507201520 | 50 | 212 | 7.0 | 14.8 | 0.03 | 0.32 | 0.13 | 51 | 1019.6 |
| 20260507201004 | 51 | 244 | 5.2 | 14.8 | 0.03 | 0.33 | 0.13 | 55 | 1019.6 |
| 20260507200508 | 50 | 244 | 7.0 | 13.9 | 0.04 | 0.34 | 0.13 | 52 | 1019.7 |
| 20260507200018 | 50 | 269 | 4.3 | 9.6 | 0.05 | 0.35 | 0.13 | 53 | 1019.7 |
| 20260507195504 | 50 | 288 | 4.3 | 12.2 | 0.06 | 0.35 | 0.13 | 51 | 1019.7 |
| 20260507195010 | 50 | 287 | 5.2 | 13.9 | 0.06 | 0.35 | 0.13 | 52 | 1019.8 |
| 20260507194512 | 50 | 267 | 4.3 | 13.9 | 0.07 | 0.36 | 0.13 | 52 | 1019.9 |
| 20260507194008 | 51 | 289 | 7.8 | 13.0 | 0.06 | 0.35 | 0.12 | 49 | 1019.9 |
| 20260507193506 | 51 | 283 | 4.3 | 12.2 | 0.07 | 0.36 | 0.12 | 55 | 1019.9 |
| 20260507193012 | 50 | 295 | 4.3 | 13.9 | 0.07 | 0.36 | 0.12 | 53 | 1019.9 |
| 20260507192509 | 50 | 283 | 7.8 | 13.9 | 0.07 | 0.36 | 0.11 | 54 | 1020.1 |
| 20260507192006 | 50 | 281 | 4.3 | 10.4 | 0.07 | 0.36 | 0.11 | 53 | 1020.2 |
| 20260507191526 | 50 | 309 | 4.3 | 8.7 | 0.07 | 0.35 | 0.10 | 53 | 1020.2 |
| 20260507191007 | 49 | 214 | 2.6 | 8.7 | 0.07 | 0.35 | 0.10 | 56 | 1020.2 |
| 20260507190504 | 48 | 292 | 4.3 | 8.7 | 0.07 | 0.34 | 0.09 | 55 | 1020.5 |
| 20260507190028 | 48 | 214 | 1.7 | 5.2 | 0.06 | 0.33 | 0.08 | 53 | 1020.5 |
| 20260507185504 | 47 | 117 | 1.7 | 5.2 | 0.05 | 0.33 | 0.07 | 57 | 1020.6 |
| 20260507185004 | 47 | 255 | 3.5 | 5.2 | 0.06 | 0.33 | 0.07 | 53 | 1020.7 |
| 20260507184524 | 47 | 340 | 2.6 | 5.2 | 0.05 | 0.32 | 0.06 | 53 | 1020.6 |
| 20260507184005 | 46 | 250 | 2.6 | 5.2 | 0.05 | 0.32 | 0.06 | 54 | 1020.7 |
| 20260507183508 | 45 | 281 | 2.6 | 6.1 | 0.05 | 0.31 | 0.05 | 59 | 1020.8 |
| 20260507183023 | 44 | 123 | 3.5 | 6.1 | 0.05 | 0.31 | 0.05 | 56 | 1020.9 |
| 20260507182506 | 44 | 237 | 1.7 | 4.3 | 0.04 | 0.30 | 0.04 | 55 | 1021.0 |
| 20260507182011 | 43 | 10 | 0.9 | 5.2 | 0.04 | 0.30 | 0.04 | 57 | 1021.2 |
| 20260507181520 | 43 | 115 | 1.7 | 7.0 | 0.03 | 0.29 | 0.03 | 55 | 1021.2 |
| 20260507181016 | 43 | 233 | 2.6 | 7.0 | 0.03 | 0.29 | 0.03 | 53 | 1021.3 |
| 20260507180508 | 43 | 198 | 2.6 | 7.0 | 0.02 | 0.28 | 0.02 | 55 | 1021.4 |
| 20260507180016 | 43 | 188 | 1.7 | 5.2 | 0.02 | 0.29 | 0.02 | 57 | 1021.4 |
| 20260507175509 | 42 | 272 | 0.9 | 5.2 | 0.02 | 0.29 | 0.02 | 58 | 1021.5 |
| 20260507175004 | 42 | 132 | 3.5 | 5.2 | 0.01 | 0.28 | 0.01 | 57 | 1021.5 |
| 20260507174514 | 42 | 40 | 0.9 | 3.5 | 0.01 | 0.28 | 0.01 | 54 | 1021.6 |
| 20260507174009 | 42 | 325 | 1.7 | 3.5 | 0.01 | 0.28 | 0.01 | 53 | 1021.7 |
| 20260507173504 | 42 | 114 | 0.9 | 3.5 | 0.00 | 0.27 | 0.00 | 53 | 1021.8 |
| 20260507173030 | 42 | 265 | 0.0 | 3.5 | 0.00 | 0.27 | 0.00 | 54 | 1021.8 |
| 20260507172508 | 41 | 238 | 0.9 | 3.5 | 0.00 | 0.27 | 0.00 | 54 | 1021.9 |
| 20260507172006 | 41 | 270 | 1.7 | 3.5 | 0.00 | 0.27 | 0.00 | 56 | 1021.9 |
| 20260507171528 | 41 | 85 | 0.9 | 5.2 | 0.00 | 0.27 | 0.00 | 55 | 1022.1 |
| 20260507171006 | 40 | 250 | 2.6 | 5.2 | 0.00 | 0.27 | 0.00 | 54 | 1022.1 |
| 20260507170510 | 40 | 222 | 0.0 | 6.1 | 0.00 | 0.27 | 0.00 | 58 | 1022.0 |
| 20260507170026 | 39 | 148 | 0.0 | 6.1 | 0.00 | 0.28 | 0.00 | 58 | 1022.1 |
| 20260507165507 | 39 | 136 | 2.6 | 7.0 | 0.00 | 0.28 | 0.00 | 58 | 1022.1 |
| 20260507165014 | 39 | 167 | 1.7 | 7.0 | 0.00 | 0.28 | 0.00 | 58 | 1022.2 |
| 20260507164525 | 38 | 115 | 2.6 | 4.3 | 0.00 | 0.28 | 0.00 | 57 | 1022.3 |
| 20260507164005 | 38 | 9 | 0.0 | 3.5 | 0.00 | 0.28 | 0.00 | 61 | 1022.4 |
| 20260507163510 | 38 | 72 | 0.9 | 3.5 | 0.00 | 0.28 | 0.00 | 59 | 1022.4 |
| 20260507163025 | 38 | 135 | 0.9 | 3.5 | 0.00 | 0.28 | 0.00 | 58 | 1022.3 |
| 20260507162508 | 38 | 108 | 0.9 | 6.1 | 0.00 | 0.28 | 0.00 | 58 | 1022.4 |
| 20260507162011 | 38 | 149 | 2.6 | 6.1 | 0.00 | 0.28 | 0.00 | 58 | 1022.4 |
| 20260507161520 | 38 | 24 | 1.7 | 4.3 | 0.00 | 0.28 | 0.00 | 58 | 1022.5 |
| 20260507161009 | 37 | 4 | 1.7 | 4.3 | 0.00 | 0.28 | 0.00 | 60 | 1022.5 |
| 20260507160505 | 37 | 279 | 0.9 | 4.3 | 0.00 | 0.28 | 0.00 | 60 | 1022.4 |
| 20260507160017 | 36 | 251 | 0.9 | 2.6 | 0.00 | 0.28 | 0.00 | 60 | 1022.5 |
| 20260507155512 | 36 | 163 | 0.9 | 2.6 | 0.00 | 0.28 | 0.00 | 61 | 1022.6 |
| 20260507155011 | 36 | 108 | 0.0 | 3.5 | 0.00 | 0.28 | 0.00 | 63 | 1022.6 |
| 20260507154526 | 35 | 137 | 1.7 | 3.5 | 0.00 | 0.28 | 0.00 | 63 | 1022.6 |
| 20260507154009 | 35 | 121 | 0.9 | 2.6 | 0.00 | 0.28 | 0.00 | 63 | 1022.6 |
| 20260507153506 | 35 | 212 | 0.9 | 2.6 | 0.00 | 0.28 | 0.00 | 64 | 1022.6 |
| 20260507153011 | 35 | 52 | 0.0 | 5.2 | 0.00 | 0.28 | 0.00 | 64 | 1022.7 |
| 20260507152503 | 34 | 30 | 2.6 | 5.2 | 0.00 | 0.28 | 0.00 | 64 | 1022.6 |
| 20260507152007 | 34 | 39 | 1.7 | 7.0 | 0.00 | 0.28 | 0.00 | 64 | 1022.7 |
| 20260507151508 | 34 | 30 | 1.7 | 7.0 | 0.00 | 0.28 | 0.00 | 67 | 1022.7 |
| 20260507151007 | 34 | 32 | 2.6 | 3.5 | 0.00 | 0.28 | 0.00 | 69 | 1022.7 |
| 20260507150504 | 33 | 319 | 1.7 | 3.5 | 0.00 | 0.28 | 0.00 | 69 | 1022.8 |
| 20260507150010 | 33 | 48 | 1.7 | 3.5 | 0.00 | 0.28 | 0.00 | 72 | 1022.7 |
| 20260507145506 | 33 | 20 | 0.9 | 2.6 | 0.00 | 0.28 | 0.00 | 72 | 1022.7 |
| 20260507145003 | 33 | 31 | 0.9 | 2.6 | 0.00 | 0.28 | 0.00 | 73 | 1022.7 |
| 20260507144525 | 32 | 46 | 0.9 | 4.3 | 0.00 | 0.28 | 0.00 | 74 | 1022.7 |
| 20260507144006 | 32 | 47 | 1.7 | 4.3 | 0.00 | 0.28 | 0.00 | 73 | 1022.7 |
| 20260507143503 | 32 | 40 | 0.9 | 2.6 | 0.00 | 0.28 | 0.00 | 75 | 1022.8 |
| 20260507143026 | 31 | 34 | 0.9 | 2.6 | 0.00 | 0.28 | 0.00 | 74 | 1022.8 |
| 20260507142505 | 31 | 25 | 1.7 | 2.6 | 0.00 | 0.28 | 0.00 | 75 | 1022.9 |
| 20260507142002 | 31 | 23 | 0.9 | 1.7 | 0.00 | 0.28 | 0.00 | 75 | 1022.9 |
| 20260507141517 | 30 | 321 | 0.0 | 0.9 | 0.00 | 0.28 | 0.00 | 79 | 1022.9 |
| 20260507141003 | 29 | 288 | 0.0 | 0.0 | 0.00 | 0.28 | 0.00 | 82 | 1022.9 |
| 20260507140507 | 28 | 287 | 0.0 | 0.0 | 0.00 | 0.28 | 0.00 | 85 | 1022.9 |
| 20260507140025 | 28 | 257 | 0.0 | 0.0 | 0.00 | 0.28 | 0.00 | 85 | 1022.9 |
| 20260507135502 | 28 | 257 | 0.0 | 0.0 | 0.00 | 0.28 | 0.00 | 86 | 1022.9 |
| 20260507135006 | 27 | 257 | 0.0 | 0.0 | 0.00 | 0.28 | 0.00 | 86 | 1023.0 |
| 20260507134514 | 27 | 257 | 0.0 | 0.0 | 0.00 | 0.28 | 0.00 | 86 | 1022.9 |
| 20260507134011 | 27 | 257 | 0.0 | 0.0 | 0.00 | 0.28 | 0.00 | 86 | 1022.8 |
| 20260507133510 | 26 | 257 | 0.0 | 0.0 | 0.00 | 0.28 | 0.00 | 87 | 1022.8 |
| 20260507133010 | 26 | 257 | 0.0 | 0.0 | 0.00 | 0.28 | 0.00 | 88 | 1022.7 |
| 20260507132507 | 25 | 257 | 0.0 | 0.0 | 0.00 | 0.28 | 0.00 | 88 | 1022.7 |
| 20260507132006 | 25 | 257 | 0.0 | 0.0 | 0.00 | 0.28 | 0.00 | 88 | 1022.6 |
| 20260507131507 | 25 | 256 | 0.0 | 0.0 | 0.00 | 0.28 | 0.00 | 88 | 1022.7 |
| 20260507131009 | 24 | 256 | 0.0 | 0.0 | 0.00 | 0.28 | 0.00 | 88 | 1022.6 |
| 20260507130504 | 24 | 256 | 0.0 | 0.9 | 0.00 | 0.28 | 0.00 | 88 | 1022.5 |
| 20260507130024 | 24 | 256 | 0.0 | 0.9 | 0.00 | 0.28 | 0.00 | 88 | 1022.5 |
| 20260507125510 | 24 | 213 | 0.0 | 0.0 | 0.00 | 0.28 | 0.00 | 89 | 1022.5 |
| 20260507125003 | 24 | 213 | 0.0 | 0.9 | 0.00 | 0.28 | 0.00 | 89 | 1022.5 |
| 20260507124525 | 23 | 213 | 0.0 | 0.9 | 0.00 | 0.28 | 0.00 | 88 | 1022.4 |
| 20260507124009 | 23 | 198 | 0.0 | 2.6 | 0.00 | 0.28 | 0.00 | 89 | 1022.4 |
| 20260507123509 | 23 | 198 | 0.9 | 2.6 | 0.00 | 0.28 | 0.00 | 89 | 1022.3 |
| 20260507103024 | 20 | 261 | 0.0 | 0.0 | 0.00 | 0.28 | 0.00 | 91 | 1022.8 |
| 20260507102503 | 21 | 261 | 0.0 | 0.0 | 0.00 | 0.28 | 0.00 | 91 | 1022.9 |
| 20260507102012 | 21 | 261 | 0.0 | 0.9 | 0.00 | 0.28 | 0.00 | 91 | 1023.0 |
| 20260507101534 | 21 | 261 | 0.0 | 0.9 | 0.00 | 0.28 | 0.00 | 91 | 1023.0 |
| 20260507101003 | 21 | 262 | 0.0 | 0.9 | 0.00 | 0.28 | 0.00 | 90 | 1023.0 |
| 20260507100506 | 21 | 262 | 0.0 | 2.6 | 0.00 | 0.28 | 0.00 | 91 | 1022.9 |
| 20260507100025 | 21 | 195 | 0.9 | 2.6 | 0.00 | 0.28 | 0.00 | 91 | 1022.9 |
| 20260507095503 | 21 | 240 | 0.0 | 0.9 | 0.00 | 0.28 | 0.00 | 91 | 1023.0 |